sensor_id;sensor_type;location;lat;lon;timestamp;pressure;altitude;pressure_sealevel;temperature;humidity
25080;BME280;13071;48.868;9.996;2023-02-19T00:01:33;96991.13;;;8.47;100.00
25080;BME280;13071;48.868;9.996;2023-02-19T00:04:02;96982.94;;;8.60;100.00
25080;BME280;13071;48.868;9.996;2023-02-19T00:06:31;96979.75;;;8.58;100.00
25080;BME280;13071;48.868;9.996;2023-02-19T00:08:58;96974.34;;;8.58;100.00
25080;BME280;13071;48.868;9.996;2023-02-19T00:11:26;96983.38;;;8.54;100.00
25080;BME280;13071;48.868;9.996;2023-02-19T00:13:54;96970.34;;;8.47;100.00
25080;BME280;13071;48.868;9.996;2023-02-19T00:16:23;96981.31;;;8.51;100.00
25080;BME280;13071;48.868;9.996;2023-02-19T00:18:53;96975.41;;;8.49;100.00
25080;BME280;13071;48.868;9.996;2023-02-19T00:21:19;96976.72;;;8.51;100.00
25080;BME280;13071;48.868;9.996;2023-02-19T00:23:49;96974.00;;;8.51;100.00
25080;BME280;13071;48.868;9.996;2023-02-19T00:26:16;96967.25;;;8.40;100.00
25080;BME280;13071;48.868;9.996;2023-02-19T00:28:43;96963.84;;;8.48;100.00
25080;BME280;13071;48.868;9.996;2023-02-19T00:31:15;96969.53;;;8.47;100.00
25080;BME280;13071;48.868;9.996;2023-02-19T00:33:42;96973.28;;;8.37;100.00
25080;BME280;13071;48.868;9.996;2023-02-19T00:36:11;96971.72;;;8.45;100.00
25080;BME280;13071;48.868;9.996;2023-02-19T00:38:38;96971.13;;;8.48;100.00
25080;BME280;13071;48.868;9.996;2023-02-19T00:41:06;96970.47;;;8.42;100.00
25080;BME280;13071;48.868;9.996;2023-02-19T00:43:45;96969.66;;;8.42;100.00
25080;BME280;13071;48.868;9.996;2023-02-19T00:46:12;96964.03;;;8.52;100.00
25080;BME280;13071;48.868;9.996;2023-02-19T00:48:39;96965.13;;;8.51;100.00
25080;BME280;13071;48.868;9.996;2023-02-19T00:51:05;96969.03;;;8.45;100.00
25080;BME280;13071;48.868;9.996;2023-02-19T00:53:33;96967.31;;;8.49;100.00
25080;BME280;13071;48.868;9.996;2023-02-19T00:56:00;96974.94;;;8.47;100.00
25080;BME280;13071;48.868;9.996;2023-02-19T00:58:26;96969.13;;;8.53;100.00
25080;BME280;13071;48.868;9.996;2023-02-19T01:00:53;96968.00;;;8.54;100.00
25080;BME280;13071;48.868;9.996;2023-02-19T01:03:19;96978.91;;;8.49;100.00
25080;BME280;13071;48.868;9.996;2023-02-19T01:05:47;96952.00;;;8.58;100.00
25080;BME280;13071;48.868;9.996;2023-02-19T01:08:14;96964.50;;;8.54;100.00
25080;BME280;13071;48.868;9.996;2023-02-19T01:10:42;96955.63;;;8.53;100.00
25080;BME280;13071;48.868;9.996;2023-02-19T01:13:08;96956.28;;;8.59;100.00
25080;BME280;13071;48.868;9.996;2023-02-19T01:15:35;96945.13;;;8.52;100.00
25080;BME280;13071;48.868;9.996;2023-02-19T01:18:02;96936.59;;;8.58;100.00
25080;BME280;13071;48.868;9.996;2023-02-19T01:20:29;96933.59;;;8.60;100.00
25080;BME280;13071;48.868;9.996;2023-02-19T01:22:55;96933.00;;;8.63;100.00
25080;BME280;13071;48.868;9.996;2023-02-19T01:25:22;96933.84;;;8.50;100.00
25080;BME280;13071;48.868;9.996;2023-02-19T01:27:50;96925.63;;;8.55;100.00
25080;BME280;13071;48.868;9.996;2023-02-19T01:30:16;96919.69;;;8.44;100.00
25080;BME280;13071;48.868;9.996;2023-02-19T01:32:43;96929.00;;;8.60;100.00
25080;BME280;13071;48.868;9.996;2023-02-19T01:35:09;96917.91;;;8.62;100.00
25080;BME280;13071;48.868;9.996;2023-02-19T01:37:36;96907.53;;;8.55;100.00
25080;BME280;13071;48.868;9.996;2023-02-19T01:40:03;96898.47;;;8.51;100.00
25080;BME280;13071;48.868;9.996;2023-02-19T01:42:30;96871.66;;;8.55;100.00
25080;BME280;13071;48.868;9.996;2023-02-19T01:45:27;96874.19;;;8.29;100.00
25080;BME280;13071;48.868;9.996;2023-02-19T01:48:02;96890.81;;;8.45;100.00
25080;BME280;13071;48.868;9.996;2023-02-19T01:50:33;96897.97;;;8.49;100.00
25080;BME280;13071;48.868;9.996;2023-02-19T01:53:04;96904.72;;;8.60;100.00
25080;BME280;13071;48.868;9.996;2023-02-19T01:55:33;96888.75;;;8.42;100.00
25080;BME280;13071;48.868;9.996;2023-02-19T01:58:00;96881.13;;;8.44;100.00
25080;BME280;13071;48.868;9.996;2023-02-19T02:00:29;96869.25;;;8.45;100.00
25080;BME280;13071;48.868;9.996;2023-02-19T02:02:58;96862.38;;;8.39;100.00
25080;BME280;13071;48.868;9.996;2023-02-19T02:05:35;96881.13;;;8.44;100.00
25080;BME280;13071;48.868;9.996;2023-02-19T02:08:03;96869.06;;;8.41;100.00
25080;BME280;13071;48.868;9.996;2023-02-19T02:10:49;96875.41;;;8.37;100.00
25080;BME280;13071;48.868;9.996;2023-02-19T02:13:16;96880.97;;;8.40;100.00
25080;BME280;13071;48.868;9.996;2023-02-19T02:15:50;96872.88;;;8.40;100.00
25080;BME280;13071;48.868;9.996;2023-02-19T02:18:25;96874.72;;;8.31;100.00
25080;BME280;13071;48.868;9.996;2023-02-19T02:21:03;96864.59;;;8.37;100.00
25080;BME280;13071;48.868;9.996;2023-02-19T02:23:39;96867.59;;;8.35;100.00
25080;BME280;13071;48.868;9.996;2023-02-19T02:26:40;96861.63;;;8.38;100.00
25080;BME280;13071;48.868;9.996;2023-02-19T02:29:54;96860.16;;;8.32;100.00
25080;BME280;13071;48.868;9.996;2023-02-19T02:32:25;96866.50;;;8.36;100.00
25080;BME280;13071;48.868;9.996;2023-02-19T02:34:59;96854.25;;;8.30;100.00
25080;BME280;13071;48.868;9.996;2023-02-19T02:37:27;96857.25;;;8.29;100.00
25080;BME280;13071;48.868;9.996;2023-02-19T02:39:57;96864.03;;;8.26;100.00
25080;BME280;13071;48.868;9.996;2023-02-19T02:42:24;96853.88;;;8.23;100.00
25080;BME280;13071;48.868;9.996;2023-02-19T02:44:56;96860.44;;;8.31;100.00
25080;BME280;13071;48.868;9.996;2023-02-19T02:47:42;96854.06;;;8.27;100.00
25080;BME280;13071;48.868;9.996;2023-02-19T02:50:14;96852.84;;;8.33;100.00
25080;BME280;13071;48.868;9.996;2023-02-19T02:52:42;96854.75;;;8.32;100.00
25080;BME280;13071;48.868;9.996;2023-02-19T02:55:30;96847.06;;;8.25;100.00
25080;BME280;13071;48.868;9.996;2023-02-19T02:57:59;96848.78;;;8.21;100.00
25080;BME280;13071;48.868;9.996;2023-02-19T03:00:28;96840.28;;;8.28;100.00
25080;BME280;13071;48.868;9.996;2023-02-19T03:03:23;96843.97;;;8.32;100.00
25080;BME280;13071;48.868;9.996;2023-02-19T03:05:51;96840.47;;;8.32;100.00
25080;BME280;13071;48.868;9.996;2023-02-19T03:08:23;96846.16;;;8.30;100.00
25080;BME280;13071;48.868;9.996;2023-02-19T03:10:54;96844.44;;;8.34;100.00
25080;BME280;13071;48.868;9.996;2023-02-19T03:13:27;96832.97;;;8.29;100.00
25080;BME280;13071;48.868;9.996;2023-02-19T03:16:17;96840.06;;;8.24;100.00
25080;BME280;13071;48.868;9.996;2023-02-19T03:19:07;96832.44;;;8.18;100.00
25080;BME280;13071;48.868;9.996;2023-02-19T03:21:51;96832.75;;;8.16;100.00
25080;BME280;13071;48.868;9.996;2023-02-19T03:24:21;96840.03;;;8.16;100.00
25080;BME280;13071;48.868;9.996;2023-02-19T03:27:08;96852.75;;;8.24;100.00
25080;BME280;13071;48.868;9.996;2023-02-19T03:29:39;96833.13;;;8.23;100.00
25080;BME280;13071;48.868;9.996;2023-02-19T03:32:10;96841.94;;;8.15;100.00
25080;BME280;13071;48.868;9.996;2023-02-19T03:34:43;96831.66;;;8.17;100.00
25080;BME280;13071;48.868;9.996;2023-02-19T03:37:15;96837.50;;;8.19;100.00
25080;BME280;13071;48.868;9.996;2023-02-19T03:39:42;96836.72;;;8.19;100.00
25080;BME280;13071;48.868;9.996;2023-02-19T03:42:20;96834.81;;;8.19;100.00
25080;BME280;13071;48.868;9.996;2023-02-19T03:44:59;96827.88;;;8.27;100.00
25080;BME280;13071;48.868;9.996;2023-02-19T03:47:33;96822.78;;;8.25;100.00
25080;BME280;13071;48.868;9.996;2023-02-19T03:50:09;96814.72;;;8.25;100.00
25080;BME280;13071;48.868;9.996;2023-02-19T03:52:45;96828.94;;;8.17;100.00
25080;BME280;13071;48.868;9.996;2023-02-19T03:55:22;96838.63;;;8.18;100.00
25080;BME280;13071;48.868;9.996;2023-02-19T03:57:54;96837.63;;;8.14;100.00
25080;BME280;13071;48.868;9.996;2023-02-19T04:00:26;96833.03;;;8.15;100.00
25080;BME280;13071;48.868;9.996;2023-02-19T04:02:59;96839.25;;;8.15;100.00
25080;BME280;13071;48.868;9.996;2023-02-19T04:05:31;96834.47;;;8.12;100.00
25080;BME280;13071;48.868;9.996;2023-02-19T04:08:01;96843.34;;;8.13;100.00
25080;BME280;13071;48.868;9.996;2023-02-19T04:10:30;96842.06;;;8.10;100.00
25080;BME280;13071;48.868;9.996;2023-02-19T04:13:01;96840.34;;;8.14;100.00
25080;BME280;13071;48.868;9.996;2023-02-19T04:15:32;96844.28;;;8.08;100.00
25080;BME280;13071;48.868;9.996;2023-02-19T04:18:04;96845.25;;;8.12;100.00
25080;BME280;13071;48.868;9.996;2023-02-19T04:20:35;96850.94;;;8.11;100.00
25080;BME280;13071;48.868;9.996;2023-02-19T04:23:03;96852.25;;;8.13;100.00
25080;BME280;13071;48.868;9.996;2023-02-19T04:25:30;96855.06;;;8.08;100.00
25080;BME280;13071;48.868;9.996;2023-02-19T04:27:58;96851.44;;;8.13;100.00
25080;BME280;13071;48.868;9.996;2023-02-19T04:30:25;96857.13;;;8.11;100.00
25080;BME280;13071;48.868;9.996;2023-02-19T04:32:51;96867.78;;;8.16;100.00
25080;BME280;13071;48.868;9.996;2023-02-19T04:35:19;96876.00;;;8.11;100.00
25080;BME280;13071;48.868;9.996;2023-02-19T04:37:46;96884.16;;;7.98;100.00
25080;BME280;13071;48.868;9.996;2023-02-19T04:40:12;96884.72;;;8.08;100.00
25080;BME280;13071;48.868;9.996;2023-02-19T04:42:39;96888.94;;;7.78;100.00
25080;BME280;13071;48.868;9.996;2023-02-19T04:45:06;96892.44;;;8.01;100.00
25080;BME280;13071;48.868;9.996;2023-02-19T04:47:33;96894.03;;;8.02;100.00
25080;BME280;13071;48.868;9.996;2023-02-19T04:49:59;96889.13;;;7.82;100.00
25080;BME280;13071;48.868;9.996;2023-02-19T04:52:27;96904.13;;;7.74;100.00
25080;BME280;13071;48.868;9.996;2023-02-19T04:54:54;96891.31;;;7.80;100.00
25080;BME280;13071;48.868;9.996;2023-02-19T04:57:20;96904.38;;;7.87;100.00
25080;BME280;13071;48.868;9.996;2023-02-19T04:59:47;96903.97;;;7.79;100.00
25080;BME280;13071;48.868;9.996;2023-02-19T05:02:14;96908.59;;;7.79;100.00
25080;BME280;13071;48.868;9.996;2023-02-19T05:04:40;96905.53;;;7.72;100.00
25080;BME280;13071;48.868;9.996;2023-02-19T05:07:07;96904.25;;;7.69;100.00
25080;BME280;13071;48.868;9.996;2023-02-19T05:09:35;96914.75;;;7.79;100.00
25080;BME280;13071;48.868;9.996;2023-02-19T05:12:02;96913.75;;;7.89;100.00
25080;BME280;13071;48.868;9.996;2023-02-19T05:14:29;96920.84;;;7.85;100.00
25080;BME280;13071;48.868;9.996;2023-02-19T05:16:55;96918.34;;;7.89;100.00
25080;BME280;13071;48.868;9.996;2023-02-19T05:19:22;96919.84;;;7.45;100.00
25080;BME280;13071;48.868;9.996;2023-02-19T05:21:49;96913.72;;;7.67;100.00
25080;BME280;13071;48.868;9.996;2023-02-19T05:24:15;96919.16;;;7.75;100.00
25080;BME280;13071;48.868;9.996;2023-02-19T05:26:43;96927.41;;;7.57;100.00
25080;BME280;13071;48.868;9.996;2023-02-19T05:29:10;96933.19;;;7.64;100.00
25080;BME280;13071;48.868;9.996;2023-02-19T05:31:36;96932.91;;;7.52;100.00
25080;BME280;13071;48.868;9.996;2023-02-19T05:34:03;96934.88;;;7.60;100.00
25080;BME280;13071;48.868;9.996;2023-02-19T05:36:30;96935.31;;;7.53;100.00
25080;BME280;13071;48.868;9.996;2023-02-19T05:38:57;96941.97;;;7.56;100.00
25080;BME280;13071;48.868;9.996;2023-02-19T05:41:24;96937.69;;;7.55;100.00
25080;BME280;13071;48.868;9.996;2023-02-19T05:43:53;96939.50;;;7.46;100.00
25080;BME280;13071;48.868;9.996;2023-02-19T05:46:22;96940.00;;;7.48;100.00
25080;BME280;13071;48.868;9.996;2023-02-19T05:48:50;96943.50;;;7.48;100.00
25080;BME280;13071;48.868;9.996;2023-02-19T05:51:20;96942.69;;;7.48;100.00
25080;BME280;13071;48.868;9.996;2023-02-19T05:53:47;96946.00;;;7.45;100.00
25080;BME280;13071;48.868;9.996;2023-02-19T05:56:23;96928.13;;;7.49;100.00
25080;BME280;13071;48.868;9.996;2023-02-19T05:58:53;96933.31;;;7.45;100.00
25080;BME280;13071;48.868;9.996;2023-02-19T06:01:21;96928.34;;;7.38;100.00
25080;BME280;13071;48.868;9.996;2023-02-19T06:03:48;96938.03;;;7.40;100.00
25080;BME280;13071;48.868;9.996;2023-02-19T06:06:17;96935.00;;;7.41;100.00
25080;BME280;13071;48.868;9.996;2023-02-19T06:08:44;96933.84;;;7.33;100.00
25080;BME280;13071;48.868;9.996;2023-02-19T06:11:11;96930.34;;;7.33;100.00
25080;BME280;13071;48.868;9.996;2023-02-19T06:13:37;96927.03;;;7.36;100.00
25080;BME280;13071;48.868;9.996;2023-02-19T06:16:06;96908.50;;;7.34;100.00
25080;BME280;13071;48.868;9.996;2023-02-19T06:18:33;96923.19;;;7.28;100.00
25080;BME280;13071;48.868;9.996;2023-02-19T06:21:00;96918.38;;;7.25;100.00
25080;BME280;13071;48.868;9.996;2023-02-19T06:23:27;96911.41;;;7.24;100.00
25080;BME280;13071;48.868;9.996;2023-02-19T06:25:53;96927.69;;;7.19;100.00
25080;BME280;13071;48.868;9.996;2023-02-19T06:28:20;96925.34;;;7.26;100.00
25080;BME280;13071;48.868;9.996;2023-02-19T06:30:47;96920.78;;;7.27;100.00
25080;BME280;13071;48.868;9.996;2023-02-19T06:33:14;96919.19;;;7.26;100.00
25080;BME280;13071;48.868;9.996;2023-02-19T06:35:41;96937.94;;;7.17;100.00
25080;BME280;13071;48.868;9.996;2023-02-19T06:38:08;96925.28;;;7.18;100.00
25080;BME280;13071;48.868;9.996;2023-02-19T06:40:34;96930.38;;;7.19;100.00
25080;BME280;13071;48.868;9.996;2023-02-19T06:43:01;96938.72;;;7.18;100.00
25080;BME280;13071;48.868;9.996;2023-02-19T06:45:27;96934.63;;;7.20;100.00
25080;BME280;13071;48.868;9.996;2023-02-19T06:47:54;96943.22;;;7.22;100.00
25080;BME280;13071;48.868;9.996;2023-02-19T06:50:22;96952.59;;;7.25;100.00
25080;BME280;13071;48.868;9.996;2023-02-19T06:52:48;96958.19;;;7.28;100.00
25080;BME280;13071;48.868;9.996;2023-02-19T06:55:15;96961.84;;;7.32;100.00
25080;BME280;13071;48.868;9.996;2023-02-19T06:57:41;96969.22;;;7.27;100.00
25080;BME280;13071;48.868;9.996;2023-02-19T07:00:09;96972.72;;;7.27;100.00
25080;BME280;13071;48.868;9.996;2023-02-19T07:02:36;96983.91;;;7.34;100.00
25080;BME280;13071;48.868;9.996;2023-02-19T07:05:03;96970.44;;;7.34;100.00
25080;BME280;13071;48.868;9.996;2023-02-19T07:07:31;96979.19;;;7.40;100.00
25080;BME280;13071;48.868;9.996;2023-02-19T07:09:57;96980.00;;;7.41;100.00
25080;BME280;13071;48.868;9.996;2023-02-19T07:12:24;96982.38;;;7.42;100.00
25080;BME280;13071;48.868;9.996;2023-02-19T07:14:51;96991.78;;;7.45;100.00
25080;BME280;13071;48.868;9.996;2023-02-19T07:17:17;96994.47;;;7.45;100.00
25080;BME280;13071;48.868;9.996;2023-02-19T07:19:44;96995.34;;;7.54;100.00
25080;BME280;13071;48.868;9.996;2023-02-19T07:22:10;97002.44;;;7.50;100.00
25080;BME280;13071;48.868;9.996;2023-02-19T07:24:38;97004.81;;;7.51;100.00
25080;BME280;13071;48.868;9.996;2023-02-19T07:27:05;97001.31;;;7.51;100.00
25080;BME280;13071;48.868;9.996;2023-02-19T07:29:31;97008.50;;;7.55;100.00
25080;BME280;13071;48.868;9.996;2023-02-19T07:31:58;97012.41;;;7.49;100.00
25080;BME280;13071;48.868;9.996;2023-02-19T07:34:24;97020.19;;;7.64;100.00
25080;BME280;13071;48.868;9.996;2023-02-19T07:36:51;97013.78;;;7.60;100.00
25080;BME280;13071;48.868;9.996;2023-02-19T07:39:18;97018.66;;;7.72;100.00
25080;BME280;13071;48.868;9.996;2023-02-19T07:41:45;97018.09;;;7.61;100.00
25080;BME280;13071;48.868;9.996;2023-02-19T07:44:12;97022.47;;;7.57;100.00
25080;BME280;13071;48.868;9.996;2023-02-19T07:46:41;97025.00;;;7.54;100.00
25080;BME280;13071;48.868;9.996;2023-02-19T07:49:07;97027.69;;;7.54;100.00
25080;BME280;13071;48.868;9.996;2023-02-19T07:51:34;97025.56;;;7.64;100.00
25080;BME280;13071;48.868;9.996;2023-02-19T07:54:00;97024.47;;;7.65;100.00
25080;BME280;13071;48.868;9.996;2023-02-19T07:56:27;97022.97;;;7.73;100.00
25080;BME280;13071;48.868;9.996;2023-02-19T07:58:55;97035.22;;;7.65;100.00
25080;BME280;13071;48.868;9.996;2023-02-19T08:01:23;97037.03;;;7.70;100.00
25080;BME280;13071;48.868;9.996;2023-02-19T08:04:11;97035.44;;;7.69;100.00
25080;BME280;13071;48.868;9.996;2023-02-19T08:06:37;97041.13;;;7.67;100.00
25080;BME280;13071;48.868;9.996;2023-02-19T08:09:05;97046.31;;;7.64;100.00
25080;BME280;13071;48.868;9.996;2023-02-19T08:11:31;97046.22;;;7.69;100.00
25080;BME280;13071;48.868;9.996;2023-02-19T08:14:17;97056.19;;;7.68;100.00
25080;BME280;13071;48.868;9.996;2023-02-19T08:16:47;97048.00;;;7.73;100.00
25080;BME280;13071;48.868;9.996;2023-02-19T08:19:14;97060.41;;;7.74;100.00
25080;BME280;13071;48.868;9.996;2023-02-19T08:21:40;97058.69;;;7.78;100.00
25080;BME280;13071;48.868;9.996;2023-02-19T08:24:07;97053.81;;;7.67;100.00
25080;BME280;13071;48.868;9.996;2023-02-19T08:26:34;97070.38;;;7.74;100.00
25080;BME280;13071;48.868;9.996;2023-02-19T08:29:01;97068.97;;;7.76;100.00
25080;BME280;13071;48.868;9.996;2023-02-19T08:31:29;97072.16;;;7.78;100.00
25080;BME280;13071;48.868;9.996;2023-02-19T08:33:56;97083.94;;;7.69;100.00
25080;BME280;13071;48.868;9.996;2023-02-19T08:36:23;97090.13;;;7.83;100.00
25080;BME280;13071;48.868;9.996;2023-02-19T08:38:49;97087.63;;;7.87;100.00
25080;BME280;13071;48.868;9.996;2023-02-19T08:41:16;97091.69;;;7.98;100.00
25080;BME280;13071;48.868;9.996;2023-02-19T08:43:43;97100.38;;;7.95;100.00
25080;BME280;13071;48.868;9.996;2023-02-19T08:46:10;97104.28;;;8.02;100.00
25080;BME280;13071;48.868;9.996;2023-02-19T08:48:39;97110.56;;;7.98;100.00
25080;BME280;13071;48.868;9.996;2023-02-19T08:51:07;97106.88;;;7.94;100.00
25080;BME280;13071;48.868;9.996;2023-02-19T08:53:36;97116.75;;;7.98;100.00
25080;BME280;13071;48.868;9.996;2023-02-19T08:56:04;97110.25;;;7.99;100.00
25080;BME280;13071;48.868;9.996;2023-02-19T08:58:31;97128.91;;;8.09;100.00
25080;BME280;13071;48.868;9.996;2023-02-19T09:00:58;97127.41;;;8.17;100.00
25080;BME280;13071;48.868;9.996;2023-02-19T09:03:24;97132.41;;;8.23;98.90
25080;BME280;13071;48.868;9.996;2023-02-19T09:05:52;97138.09;;;8.22;98.64
25080;BME280;13071;48.868;9.996;2023-02-19T09:08:19;97129.13;;;8.13;97.64
25080;BME280;13071;48.868;9.996;2023-02-19T09:10:56;97139.19;;;8.21;97.75
25080;BME280;13071;48.868;9.996;2023-02-19T09:13:23;97131.72;;;8.32;97.65
25080;BME280;13071;48.868;9.996;2023-02-19T09:15:49;97130.19;;;8.25;97.50
25080;BME280;13071;48.868;9.996;2023-02-19T09:18:16;97135.78;;;8.29;96.54
25080;BME280;13071;48.868;9.996;2023-02-19T09:20:43;97145.50;;;8.30;95.87
25080;BME280;13071;48.868;9.996;2023-02-19T09:23:11;97136.59;;;8.30;96.38
25080;BME280;13071;48.868;9.996;2023-02-19T09:25:37;97141.50;;;8.28;95.61
25080;BME280;13071;48.868;9.996;2023-02-19T09:28:04;97144.97;;;8.28;95.46
25080;BME280;13071;48.868;9.996;2023-02-19T09:30:30;97159.50;;;8.32;95.49
25080;BME280;13071;48.868;9.996;2023-02-19T09:32:57;97165.47;;;8.43;95.34
25080;BME280;13071;48.868;9.996;2023-02-19T09:35:23;97165.53;;;8.51;95.32
25080;BME280;13071;48.868;9.996;2023-02-19T09:37:50;97172.47;;;8.30;93.67
25080;BME280;13071;48.868;9.996;2023-02-19T09:40:18;97179.47;;;8.31;94.51
25080;BME280;13071;48.868;9.996;2023-02-19T09:42:46;97187.91;;;8.24;94.37
25080;BME280;13071;48.868;9.996;2023-02-19T09:45:18;97186.84;;;8.12;95.05
25080;BME280;13071;48.868;9.996;2023-02-19T09:47:46;97186.63;;;8.22;94.41
25080;BME280;13071;48.868;9.996;2023-02-19T09:50:16;97191.63;;;8.29;93.86
25080;BME280;13071;48.868;9.996;2023-02-19T09:52:46;97189.94;;;8.33;93.72
25080;BME280;13071;48.868;9.996;2023-02-19T09:55:19;97203.63;;;8.36;94.12
25080;BME280;13071;48.868;9.996;2023-02-19T09:57:49;97204.13;;;8.38;93.75
25080;BME280;13071;48.868;9.996;2023-02-19T10:00:20;97202.91;;;8.44;93.81
25080;BME280;13071;48.868;9.996;2023-02-19T10:02:50;97207.81;;;8.42;93.78
25080;BME280;13071;48.868;9.996;2023-02-19T10:05:17;97208.91;;;8.41;94.14
25080;BME280;13071;48.868;9.996;2023-02-19T10:07:45;97200.31;;;8.39;93.19
25080;BME280;13071;48.868;9.996;2023-02-19T10:10:32;97194.44;;;8.37;93.30
25080;BME280;13071;48.868;9.996;2023-02-19T10:13:12;97187.63;;;8.40;93.93
25080;BME280;13071;48.868;9.996;2023-02-19T10:15:43;97190.91;;;8.50;95.07
25080;BME280;13071;48.868;9.996;2023-02-19T10:18:11;97191.81;;;8.46;93.33
25080;BME280;13071;48.868;9.996;2023-02-19T10:20:38;97187.94;;;8.52;93.22
25080;BME280;13071;48.868;9.996;2023-02-19T10:23:06;97179.84;;;8.52;91.94
25080;BME280;13071;48.868;9.996;2023-02-19T10:25:41;97171.63;;;8.57;92.44
25080;BME280;13071;48.868;9.996;2023-02-19T10:28:13;97170.53;;;8.58;91.57
25080;BME280;13071;48.868;9.996;2023-02-19T10:30:40;97176.28;;;8.65;90.97
25080;BME280;13071;48.868;9.996;2023-02-19T10:33:09;97182.09;;;8.72;90.14
25080;BME280;13071;48.868;9.996;2023-02-19T10:35:38;97193.00;;;8.67;89.35
25080;BME280;13071;48.868;9.996;2023-02-19T10:38:17;97207.34;;;8.76;89.86
25080;BME280;13071;48.868;9.996;2023-02-19T10:40:46;97201.22;;;8.84;90.04
25080;BME280;13071;48.868;9.996;2023-02-19T10:43:20;97201.72;;;8.86;89.53
25080;BME280;13071;48.868;9.996;2023-02-19T10:45:48;97201.44;;;8.74;88.08
25080;BME280;13071;48.868;9.996;2023-02-19T10:48:21;97203.84;;;8.76;87.75
25080;BME280;13071;48.868;9.996;2023-02-19T10:50:51;97213.56;;;8.77;88.63
25080;BME280;13071;48.868;9.996;2023-02-19T10:53:23;97216.22;;;8.90;89.09
25080;BME280;13071;48.868;9.996;2023-02-19T10:56:08;97223.03;;;8.88;88.23
25080;BME280;13071;48.868;9.996;2023-02-19T10:58:35;97220.50;;;8.91;89.50
25080;BME280;13071;48.868;9.996;2023-02-19T11:01:15;97217.06;;;8.77;87.77
25080;BME280;13071;48.868;9.996;2023-02-19T11:03:44;97216.72;;;8.79;88.33
25080;BME280;13071;48.868;9.996;2023-02-19T11:06:12;97211.34;;;8.79;88.25
25080;BME280;13071;48.868;9.996;2023-02-19T11:08:54;97207.94;;;8.87;86.85
25080;BME280;13071;48.868;9.996;2023-02-19T11:11:24;97209.59;;;8.96;87.44
25080;BME280;13071;48.868;9.996;2023-02-19T11:13:53;97212.88;;;9.07;87.69
25080;BME280;13071;48.868;9.996;2023-02-19T11:16:21;97202.88;;;9.07;85.97
25080;BME280;13071;48.868;9.996;2023-02-19T11:18:52;97204.44;;;9.08;85.60
25080;BME280;13071;48.868;9.996;2023-02-19T11:21:25;97200.06;;;9.13;87.23
25080;BME280;13071;48.868;9.996;2023-02-19T11:23:58;97205.56;;;9.07;86.36
25080;BME280;13071;48.868;9.996;2023-02-19T11:26:31;97201.19;;;8.98;86.34
25080;BME280;13071;48.868;9.996;2023-02-19T11:29:16;97208.50;;;8.97;86.04
25080;BME280;13071;48.868;9.996;2023-02-19T11:31:44;97209.03;;;9.08;86.73
25080;BME280;13071;48.868;9.996;2023-02-19T11:34:25;97207.47;;;9.07;86.31
25080;BME280;13071;48.868;9.996;2023-02-19T11:37:07;97204.31;;;9.14;86.19
25080;BME280;13071;48.868;9.996;2023-02-19T11:39:34;97197.47;;;9.07;84.63
25080;BME280;13071;48.868;9.996;2023-02-19T11:42:11;97200.16;;;9.07;86.71
25080;BME280;13071;48.868;9.996;2023-02-19T11:44:52;97199.56;;;9.10;85.35
25080;BME280;13071;48.868;9.996;2023-02-19T11:47:38;97197.97;;;9.32;85.58
25080;BME280;13071;48.868;9.996;2023-02-19T11:50:17;97207.03;;;9.36;84.81
25080;BME280;13071;48.868;9.996;2023-02-19T11:52:52;97205.38;;;9.26;83.86
25080;BME280;13071;48.868;9.996;2023-02-19T11:55:38;97202.56;;;9.31;84.19
25080;BME280;13071;48.868;9.996;2023-02-19T11:58:23;97218.69;;;9.45;85.09
25080;BME280;13071;48.868;9.996;2023-02-19T12:00:59;97220.59;;;9.44;84.72
25080;BME280;13071;48.868;9.996;2023-02-19T12:03:58;97219.25;;;9.56;84.36
25080;BME280;13071;48.868;9.996;2023-02-19T12:06:37;97228.09;;;9.47;82.84
25080;BME280;13071;48.868;9.996;2023-02-19T12:09:29;97220.22;;;9.60;85.16
25080;BME280;13071;48.868;9.996;2023-02-19T12:12:15;97216.03;;;9.53;83.52
25080;BME280;13071;48.868;9.996;2023-02-19T12:14:57;97204.13;;;9.54;83.68
25080;BME280;13071;48.868;9.996;2023-02-19T12:17:46;97209.59;;;9.63;84.18
25080;BME280;13071;48.868;9.996;2023-02-19T12:20:23;97212.81;;;9.74;83.27
25080;BME280;13071;48.868;9.996;2023-02-19T12:23:01;97210.69;;;9.93;80.73
25080;BME280;13071;48.868;9.996;2023-02-19T12:25:48;97212.28;;;9.63;80.13
25080;BME280;13071;48.868;9.996;2023-02-19T12:28:40;97205.91;;;9.59;80.08
25080;BME280;13071;48.868;9.996;2023-02-19T12:31:23;97212.53;;;9.75;80.02
25080;BME280;13071;48.868;9.996;2023-02-19T12:34:18;97223.94;;;9.72;79.95
25080;BME280;13071;48.868;9.996;2023-02-19T12:36:58;97216.06;;;9.84;80.93
25080;BME280;13071;48.868;9.996;2023-02-19T12:39:36;97211.63;;;9.88;80.33
25080;BME280;13071;48.868;9.996;2023-02-19T12:42:13;97207.47;;;9.82;79.93
25080;BME280;13071;48.868;9.996;2023-02-19T12:44:46;97225.44;;;9.87;80.20
25080;BME280;13071;48.868;9.996;2023-02-19T12:47:18;97221.59;;;9.79;79.78
25080;BME280;13071;48.868;9.996;2023-02-19T12:49:49;97223.88;;;9.86;78.79
25080;BME280;13071;48.868;9.996;2023-02-19T12:52:21;97202.91;;;9.91;79.18
25080;BME280;13071;48.868;9.996;2023-02-19T12:54:52;97217.53;;;9.90;79.02
25080;BME280;13071;48.868;9.996;2023-02-19T12:57:21;97214.72;;;9.73;79.49
25080;BME280;13071;48.868;9.996;2023-02-19T12:59:53;97214.59;;;9.78;81.03
25080;BME280;13071;48.868;9.996;2023-02-19T13:02:25;97209.97;;;9.70;80.80
25080;BME280;13071;48.868;9.996;2023-02-19T13:04:58;97215.75;;;9.55;81.05
25080;BME280;13071;48.868;9.996;2023-02-19T13:07:30;97216.84;;;9.54;79.86
25080;BME280;13071;48.868;9.996;2023-02-19T13:10:05;97211.94;;;9.56;80.35
25080;BME280;13071;48.868;9.996;2023-02-19T13:12:41;97216.28;;;9.66;81.22
25080;BME280;13071;48.868;9.996;2023-02-19T13:15:14;97206.78;;;9.77;80.47
25080;BME280;13071;48.868;9.996;2023-02-19T13:17:46;97200.16;;;9.83;79.18
25080;BME280;13071;48.868;9.996;2023-02-19T13:20:19;97205.91;;;9.90;79.58
25080;BME280;13071;48.868;9.996;2023-02-19T13:22:56;97209.56;;;9.85;78.68